Time;durP1;ratioP1;P1;durP2;ratioP2;P2;SDS_P1;SDS_P2;PMS_P1;PMS_P2;Temp;Humidity;BMP_temperature;BMP_pressure;BME280_temperature;BME280_humidity;BME280_pressure;Samples;Min_cycle;Max_cycle;Signal;HPM_P1;HPM_P2
2022/10/27 00:01:57;;;;;;;13.32;6.18;;;12.70;99.90;;;;;;5071895;28;20444;-70
2022/10/27 00:04:22;;;;;;;12.57;5.43;;;12.70;99.90;;;;;;5072222;28;20097;-70
2022/10/27 00:06:48;;;;;;;17.02;5.80;;;12.70;99.90;;;;;;5071260;28;20047;-70
2022/10/27 00:09:14;;;;;;;15.75;5.72;;;12.70;99.90;;;;;;5074443;28;20098;-70
2022/10/27 00:11:40;;;;;;;18.13;5.68;;;12.70;99.90;;;;;;5075999;28;20451;-71
2022/10/27 00:14:06;;;;;;;14.82;5.80;;;12.70;99.90;;;;;;5058805;28;20041;-72
2022/10/27 00:16:31;;;;;;;20.42;7.00;;;12.70;99.90;;;;;;5074497;28;20044;-72
2022/10/27 00:18:57;;;;;;;19.08;7.32;;;12.70;99.90;;;;;;5057983;28;20397;-71
2022/10/27 00:21:23;;;;;;;14.07;6.20;;;12.80;99.90;;;;;;5075667;28;20091;-70
2022/10/27 00:23:50;;;;;;;16.55;6.65;;;12.80;99.90;;;;;;5075685;28;20438;-70
2022/10/27 00:26:16;;;;;;;;;;;12.90;99.90;;;;;;5074997;28;20040;-70
2022/10/27 00:28:42;;;;;;;19.48;6.75;;;12.90;99.90;;;;;;5075900;28;20017;-70
2022/10/27 00:31:15;;;;;;;18.33;6.88;;;13.00;99.90;;;;;;5057124;28;20517;-70
2022/10/27 00:33:42;;;;;;;14.80;6.43;;;13.00;99.90;;;;;;5074136;28;20480;-70
2022/10/27 00:36:16;;;;;;;20.80;6.30;;;13.00;99.90;;;;;;5076143;28;20071;-70
2022/10/27 00:38:42;;;;;;;21.17;6.03;;;13.10;99.90;;;;;;5075112;28;20504;-70
2022/10/27 00:41:29;;;;;;;16.45;6.47;;;13.10;99.90;;;;;;5075423;28;20070;-70
2022/10/27 00:43:55;;;;;;;16.70;6.13;;;13.10;99.90;;;;;;5057961;28;20135;-71
2022/10/27 00:46:44;;;;;;;15.48;6.88;;;13.10;99.90;;;;;;5073938;28;20131;-71
2022/10/27 00:49:21;;;;;;;17.98;6.47;;;13.10;99.90;;;;;;5074402;28;20111;-71
2022/10/27 00:51:54;;;;;;;19.48;6.40;;;13.00;99.90;;;;;;5074528;28;20473;-72
2022/10/27 00:54:21;;;;;;;16.48;6.18;;;13.10;99.90;;;;;;5057505;28;20056;-71
2022/10/27 00:56:49;;;;;;;18.25;6.25;;;13.10;99.90;;;;;;5057702;28;20132;-70
2022/10/27 00:59:16;;;;;;;15.70;6.38;;;13.00;99.90;;;;;;5074560;28;20048;-70
2022/10/27 01:01:43;;;;;;;12.98;6.03;;;13.10;99.90;;;;;;5073554;28;20045;-70
2022/10/27 01:04:09;;;;;;;;;;;13.10;99.90;;;;;;5057476;28;20040;-70
2022/10/27 01:06:35;;;;;;;13.73;6.20;;;13.10;99.90;;;;;;5073790;28;20019;-71
2022/10/27 01:09:01;;;;;;;16.15;5.95;;;13.10;99.90;;;;;;5074748;28;20060;-70
2022/10/27 01:11:27;;;;;;;14.43;6.40;;;13.20;99.90;;;;;;5075491;28;20051;-72
2022/10/27 01:13:53;;;;;;;16.83;5.95;;;13.20;99.90;;;;;;5074844;28;20453;-69
2022/10/27 01:16:36;;;;;;;16.70;6.47;;;13.30;99.90;;;;;;5073568;28;20041;-70
2022/10/27 01:19:11;;;;;;;15.93;6.55;;;13.30;99.90;;;;;;5073964;28;20048;-70
2022/10/27 01:22:06;;;;;;;15.77;6.80;;;13.30;99.90;;;;;;5073436;28;20048;-69
2022/10/27 01:24:37;;;;;;;13.27;6.10;;;13.40;99.90;;;;;;5074672;28;20070;-70
2022/10/27 01:27:40;;;;;;;17.58;6.60;;;13.40;99.90;;;;;;5073265;28;20534;-70
2022/10/27 01:30:12;;;;;;;14.45;6.25;;;13.40;99.90;;;;;;5073840;28;20044;-71
2022/10/27 01:32:53;;;;;;;16.15;6.47;;;13.50;99.90;;;;;;5073232;28;20087;-71
2022/10/27 01:35:40;;;;;;;16.63;6.68;;;13.50;99.90;;;;;;5074300;28;20493;-70
2022/10/27 01:38:17;;;;;;;17.13;6.07;;;13.60;99.90;;;;;;5074018;28;20044;-72
2022/10/27 01:41:13;;;;;;;15.80;6.13;;;13.60;99.90;;;;;;5072878;28;20049;-70
2022/10/27 01:43:39;;;;;;;14.50;6.18;;;13.60;99.90;;;;;;5056720;28;20502;-71
2022/10/27 01:46:08;;;;;;;19.90;7.03;;;13.60;99.90;;;;;;5039668;28;20507;-71
2022/10/27 01:48:35;;;;;;;14.40;5.85;;;13.70;99.90;;;;;;5073090;28;20083;-75
2022/10/27 01:51:02;;;;;;;15.35;6.03;;;13.70;99.90;;;;;;5073020;28;20066;-70
2022/10/27 01:53:35;;;;;;;17.97;6.67;;;13.70;99.90;;;;;;5073706;28;20492;-73
2022/10/27 01:56:11;;;;;;;13.77;5.90;;;13.70;99.90;;;;;;5074467;28;20080;-71
2022/10/27 01:58:43;;;;;;;17.02;6.20;;;13.60;99.90;;;;;;5073368;28;20052;-75
2022/10/27 02:01:28;;;;;;;16.45;6.07;;;13.60;99.90;;;;;;5072920;28;20052;-71
2022/10/27 02:04:26;;;;;;;17.45;6.70;;;13.50;99.90;;;;;;5073763;28;20036;-71
2022/10/27 02:07:16;;;;;;;12.43;5.80;;;13.40;99.90;;;;;;5048143;28;20139;-71
2022/10/27 02:10:10;;;;;;;15.70;5.68;;;13.30;99.90;;;;;;5073619;28;20048;-71
2022/10/27 02:12:38;;;;;;;12.32;5.97;;;13.20;99.90;;;;;;5067917;28;20060;-76
2022/10/27 02:15:33;;;;;;;16.38;5.80;;;13.10;99.90;;;;;;5072530;28;20116;-71
2022/10/27 02:18:30;;;;;;;16.05;6.22;;;13.10;99.90;;;;;;5073188;28;20147;-70
2022/10/27 02:21:00;;;;;;;13.88;5.95;;;13.00;99.90;;;;;;5068163;28;20096;-71
2022/10/27 02:23:26;;;;;;;15.82;6.15;;;12.90;99.90;;;;;;5073714;28;20102;-71
2022/10/27 02:26:17;;;;;;;12.95;6.22;;;13.00;99.90;;;;;;5073469;28;20193;-72
2022/10/27 02:28:59;;;;;;;16.30;5.95;;;13.00;99.90;;;;;;5074372;28;20086;-71
2022/10/27 02:31:36;;;;;;;17.23;6.78;;;13.00;99.90;;;;;;5071800;28;20531;-71
2022/10/27 02:34:03;;;;;;;14.98;6.25;;;13.00;99.90;;;;;;5072224;28;20148;-71
2022/10/27 02:36:29;;;;;;;14.77;5.95;;;13.00;99.90;;;;;;5073201;28;20041;-72
2022/10/27 02:38:55;;;;;;;17.17;6.82;;;13.00;99.90;;;;;;5073613;28;20084;-72
2022/10/27 02:41:21;;;;;;;16.50;6.50;;;13.00;99.90;;;;;;5071807;28;20084;-72
2022/10/27 02:43:47;;;;;;;20.63;6.70;;;13.00;99.90;;;;;;5071654;28;20048;-72
2022/10/27 02:46:12;;;;;;;14.18;6.25;;;13.00;99.90;;;;;;5072667;28;20055;-71
2022/10/27 02:48:38;;;;;;;20.98;7.07;;;12.90;99.90;;;;;;5076623;28;20071;-78
2022/10/27 02:51:04;;;;;;;14.38;6.28;;;12.90;99.90;;;;;;5074871;28;20056;-71
2022/10/27 02:53:30;;;;;;;18.27;6.90;;;12.90;99.90;;;;;;5055785;28;20044;-71
2022/10/27 02:55:55;;;;;;;14.30;6.22;;;12.90;99.90;;;;;;5075652;28;20041;-71
2022/10/27 02:58:21;;;;;;;19.23;7.40;;;12.90;99.90;;;;;;5058589;28;20126;-72
2022/10/27 03:00:47;;;;;;;18.52;6.97;;;12.80;99.90;;;;;;5075157;28;20041;-71
2022/10/27 03:03:12;;;;;;;18.27;7.10;;;12.80;99.90;;;;;;5075052;28;20049;-71
2022/10/27 03:05:38;;;;;;;18.33;7.25;;;12.80;99.90;;;;;;5074893;28;20124;-73
2022/10/27 03:08:04;;;;;;;18.85;7.25;;;12.70;99.90;;;;;;5074377;28;20120;-72
2022/10/27 03:10:30;;;;;;;15.13;6.95;;;12.70;99.90;;;;;;5074041;28;20118;-71
2022/10/27 03:12:55;;;;;;;17.83;7.55;;;12.70;99.90;;;;;;5075111;28;20048;-70
2022/10/27 03:15:21;;;;;;;18.80;7.63;;;12.80;99.90;;;;;;5073859;28;20135;-70
2022/10/27 03:17:48;;;;;;;16.83;7.10;;;12.80;99.90;;;;;;5074743;28;20090;-70
2022/10/27 03:20:16;;;;;;;14.40;6.47;;;12.80;99.90;;;;;;5073853;28;20052;-69
2022/10/27 03:22:42;;;;;;;13.50;7.45;;;12.70;99.90;;;;;;5075333;28;20084;-77
2022/10/27 03:25:10;;;;;;;20.83;7.32;;;12.70;99.90;;;;;;5074956;28;20113;-71
2022/10/27 03:27:38;;;;;;;17.88;7.35;;;12.70;99.90;;;;;;5056982;28;20041;-74
2022/10/27 03:30:06;;;;;;;16.17;7.28;;;12.70;99.90;;;;;;5073394;28;20078;-71
2022/10/27 03:32:32;;;;;;;20.25;7.82;;;12.70;99.90;;;;;;5073493;28;20051;-71
2022/10/27 03:34:57;;;;;;;17.63;8.05;;;12.70;99.90;;;;;;5073297;28;20435;-71
2022/10/27 03:37:23;;;;;;;23.15;7.68;;;12.70;99.90;;;;;;5073380;28;20079;-71
2022/10/27 03:39:49;;;;;;;16.95;7.80;;;12.70;99.90;;;;;;5055449;28;20094;-71
2022/10/27 03:42:14;;;;;;;18.27;7.53;;;12.70;99.90;;;;;;5074586;28;20059;-72
2022/10/27 03:44:40;;;;;;;17.90;7.75;;;12.60;99.90;;;;;;5075397;28;20045;-70
2022/10/27 03:47:06;;;;;;;18.08;7.88;;;12.60;99.90;;;;;;5075181;28;20047;-70
2022/10/27 03:49:32;;;;;;;17.90;8.63;;;12.60;99.90;;;;;;5075167;28;20397;-71
2022/10/27 03:51:57;;;;;;;22.48;8.70;;;12.60;99.90;;;;;;5075139;28;20454;-70
2022/10/27 03:54:23;;;;;;;22.60;8.52;;;12.70;99.90;;;;;;5075152;28;20535;-70
2022/10/27 03:56:49;;;;;;;21.23;8.60;;;12.60;99.90;;;;;;5058515;28;20154;-70
2022/10/27 03:59:15;;;;;;;23.23;8.70;;;12.70;99.90;;;;;;5058458;28;20135;-70
2022/10/27 04:01:41;;;;;;;27.15;9.02;;;12.70;99.90;;;;;;5076104;28;20052;-70
2022/10/27 04:04:10;;;;;;;25.83;9.35;;;12.60;99.90;;;;;;5075455;28;20048;-71
2022/10/27 04:06:35;;;;;;;16.02;8.60;;;12.60;99.90;;;;;;5075687;28;20044;-70
2022/10/27 04:09:01;;;;;;;19.15;8.98;;;12.60;99.90;;;;;;5076126;28;20310;-71
2022/10/27 04:11:27;;;;;;;22.63;9.27;;;12.60;99.90;;;;;;5075261;28;20053;-70
2022/10/27 04:13:53;;;;;;;18.90;9.15;;;12.60;99.90;;;;;;5075796;28;20044;-71
2022/10/27 04:16:18;;;;;;;25.65;9.70;;;12.60;99.90;;;;;;5074939;28;20052;-71
2022/10/27 04:18:45;;;;;;;24.98;9.95;;;12.60;99.90;;;;;;5074633;28;20052;-71
2022/10/27 04:21:11;;;;;;;20.33;9.55;;;12.60;99.90;;;;;;5074672;28;20052;-70
2022/10/27 04:23:37;;;;;;;19.45;9.98;;;12.60;99.90;;;;;;5074623;28;20112;-70
2022/10/27 04:26:02;;;;;;;25.88;11.18;;;12.60;99.90;;;;;;5075389;28;20045;-71
2022/10/27 04:28:28;;;;;;;24.70;10.60;;;12.60;99.90;;;;;;5058780;28;20384;-72
2022/10/27 04:30:54;;;;;;;24.02;11.02;;;12.60;99.90;;;;;;5075322;28;20147;-71
2022/10/27 04:33:21;;;;;;;20.60;10.60;;;12.60;99.90;;;;;;5074008;28;20052;-71
2022/10/27 04:35:47;;;;;;;23.58;11.15;;;12.60;99.90;;;;;;5074231;28;20137;-77
2022/10/27 04:38:13;;;;;;;20.48;10.52;;;12.60;99.90;;;;;;5075486;28;20484;-71
2022/10/27 04:40:38;;;;;;;21.70;11.30;;;12.70;99.90;;;;;;5041263;28;20070;-71
2022/10/27 04:43:05;;;;;;;22.35;11.13;;;12.70;99.90;;;;;;5058330;28;20102;-71
2022/10/27 04:45:32;;;;;;;25.30;11.00;;;12.70;99.90;;;;;;5074422;28;20047;-71
2022/10/27 04:47:58;;;;;;;21.17;12.15;;;12.70;99.90;;;;;;5075104;28;20036;-71
2022/10/27 04:50:24;;;;;;;24.52;10.93;;;12.70;99.90;;;;;;5074180;28;20102;-69
2022/10/27 04:53:00;;;;;;;24.50;11.80;;;12.70;99.90;;;;;;5075398;28;20469;-74
2022/10/27 04:55:28;;;;;;;23.85;10.82;;;12.70;99.90;;;;;;5057130;28;20128;-70
2022/10/27 04:57:54;;;;;;;23.35;11.23;;;12.70;99.90;;;;;;5057559;28;20056;-70
2022/10/27 05:00:21;;;;;;;21.80;10.53;;;12.70;99.90;;;;;;5074283;28;20386;-71
2022/10/27 05:02:54;;;;;;;22.60;10.25;;;12.80;99.90;;;;;;5074009;28;20047;-70
2022/10/27 05:05:20;;;;;;;25.65;10.57;;;12.80;99.90;;;;;;5057461;28;20091;-70
2022/10/27 05:07:59;;;;;;;25.13;11.67;;;12.80;99.90;;;;;;5040655;28;20033;-70
2022/10/27 05:10:26;;;;;;;23.08;10.52;;;12.80;99.90;;;;;;5057574;28;20099;-70
2022/10/27 05:12:52;;;;;;;20.08;10.40;;;12.90;99.90;;;;;;5074813;28;20080;-76
2022/10/27 05:15:18;;;;;;;29.87;10.90;;;12.90;99.90;;;;;;5056823;28;20043;-71
2022/10/27 05:17:44;;;;;;;21.88;9.75;;;12.90;99.90;;;;;;5074560;28;20049;-71
2022/10/27 05:20:10;;;;;;;17.48;10.30;;;13.00;99.90;;;;;;5074345;28;20061;-70
2022/10/27 05:22:37;;;;;;;19.95;10.88;;;13.00;99.90;;;;;;5074479;28;20418;-71
2022/10/27 05:25:04;;;;;;;19.85;10.07;;;13.00;99.90;;;;;;5056823;28;20044;-70
2022/10/27 05:27:31;;;;;;;19.15;9.82;;;13.00;99.90;;;;;;5056706;28;20040;-72
2022/10/27 05:29:57;;;;;;;20.27;10.13;;;13.00;99.90;;;;;;5056886;28;20057;-72
2022/10/27 05:32:23;;;;;;;18.53;9.67;;;13.00;99.90;;;;;;5056054;28;20064;-72
2022/10/27 05:34:49;;;;;;;21.63;10.40;;;13.00;99.90;;;;;;5073422;28;20519;-72
2022/10/27 05:37:14;;;;;;;15.63;9.60;;;13.00;99.90;;;;;;5073246;28;20467;-74
2022/10/27 05:39:40;;;;;;;19.13;10.32;;;13.00;99.90;;;;;;5073125;28;20045;-72
2022/10/27 05:42:06;;;;;;;19.77;9.90;;;13.00;99.90;;;;;;5072923;28;20052;-71
2022/10/27 05:44:32;;;;;;;20.52;9.50;;;13.00;99.90;;;;;;5073154;28;20049;-72
2022/10/27 05:46:57;;;;;;;20.88;9.90;;;13.00;99.90;;;;;;5056123;28;20041;-71
2022/10/27 05:49:23;;;;;;;17.70;9.20;;;13.10;99.90;;;;;;5074166;28;20052;-70
2022/10/27 05:51:49;;;;;;;23.08;9.73;;;13.00;99.90;;;;;;5073732;28;20037;-70
2022/10/27 05:54:15;;;;;;;24.55;9.55;;;13.00;99.90;;;;;;5072956;28;20046;-71
2022/10/27 05:56:41;;;;;;;22.60;10.13;;;13.00;99.90;;;;;;5074043;28;20047;-70
2022/10/27 05:59:08;;;;;;;19.33;9.43;;;13.00;99.90;;;;;;5040225;28;20048;-71
2022/10/27 06:01:34;;;;;;;;;;;13.00;99.90;;;;;;5072979;28;20067;-70
2022/10/27 06:04:00;;;;;;;18.33;8.40;;;13.00;99.90;;;;;;5072642;28;19920;-71
2022/10/27 06:06:25;;;;;;;21.83;9.10;;;13.00;99.90;;;;;;5054925;28;20045;-70
2022/10/27 06:08:51;;;;;;;19.13;8.73;;;13.00;99.90;;;;;;5072441;28;20109;-71
2022/10/27 06:11:17;;;;;;;17.63;8.57;;;13.00;99.90;;;;;;5072836;28;20432;-71
2022/10/27 06:13:42;;;;;;;19.48;9.18;;;13.00;99.90;;;;;;5073604;28;20094;-71
2022/10/27 06:16:08;;;;;;;21.52;9.43;;;13.00;99.90;;;;;;5072344;28;20048;-72
2022/10/27 06:18:34;;;;;;;18.42;8.82;;;13.00;99.90;;;;;;5073434;28;20547;-71
2022/10/27 06:20:59;;;;;;;21.45;9.13;;;12.90;99.90;;;;;;5073311;28;20052;-70
2022/10/27 06:23:25;;;;;;;17.35;8.35;;;12.90;99.90;;;;;;5055754;28;20063;-70
2022/10/27 06:25:54;;;;;;;19.95;8.88;;;12.90;99.90;;;;;;5071780;28;20464;-71
2022/10/27 06:28:21;;;;;;;22.60;8.60;;;12.90;99.90;;;;;;5073147;28;20049;-72
2022/10/27 06:30:47;;;;;;;17.48;8.88;;;12.90;99.90;;;;;;5071686;28;20048;-71
2022/10/27 06:33:12;;;;;;;19.23;8.90;;;12.90;99.90;;;;;;5073204;28;20048;-71
2022/10/27 06:35:38;;;;;;;21.33;8.52;;;12.90;99.90;;;;;;5073231;28;20137;-70
2022/10/27 06:38:04;;;;;;;22.25;9.05;;;12.90;99.90;;;;;;5073153;28;20044;-70
2022/10/27 06:40:30;;;;;;;18.98;8.50;;;12.90;99.90;;;;;;5072114;28;20076;-71
2022/10/27 06:42:56;;;;;;;20.05;8.55;;;12.90;99.90;;;;;;5073924;28;20052;-71
2022/10/27 06:45:21;;;;;;;21.38;8.85;;;12.90;99.90;;;;;;5071814;28;20497;-72
2022/10/27 06:47:55;;;;;;;16.67;8.70;;;13.00;99.90;;;;;;5071718;28;20460;-70
2022/10/27 06:50:20;;;;;;;18.02;8.57;;;13.00;99.90;;;;;;5071589;28;20049;-71
2022/10/27 06:52:46;;;;;;;17.70;8.43;;;13.10;99.90;;;;;;5038730;28;20392;-72
2022/10/27 06:55:12;;;;;;;18.05;8.02;;;13.10;99.90;;;;;;5072565;28;20048;-72
2022/10/27 06:57:42;;;;;;;18.38;8.40;;;13.10;99.90;;;;;;5072625;28;20043;-72
2022/10/27 07:00:10;;;;;;;19.75;8.20;;;13.20;99.90;;;;;;5071569;28;20469;-72
2022/10/27 07:02:36;;;;;;;22.63;8.65;;;13.20;99.90;;;;;;5072824;28;20045;-70
2022/10/27 07:05:03;;;;;;;20.40;8.40;;;13.30;99.90;;;;;;5073067;28;20400;-72
2022/10/27 07:07:28;;;;;;;;;;;13.40;99.90;;;;;;5073199;28;20041;-71
2022/10/27 07:09:54;;;;;;;16.80;7.20;;;13.40;99.90;;;;;;5054850;28;20022;-71
2022/10/27 07:12:20;;;;;;;20.98;7.50;;;13.50;99.90;;;;;;5071413;28;20048;-72
2022/10/27 07:14:45;;;;;;;18.83;7.65;;;13.50;99.90;;;;;;5072195;28;20056;-72
2022/10/27 07:17:11;;;;;;;21.75;7.82;;;13.60;99.90;;;;;;5072674;28;20411;-71
2022/10/27 07:19:37;;;;;;;18.52;7.18;;;13.60;99.90;;;;;;5072245;28;20044;-70
2022/10/27 07:22:03;;;;;;;18.73;7.53;;;13.70;99.90;;;;;;5039158;28;20098;-70
2022/10/27 07:24:28;;;;;;;20.90;7.60;;;13.70;99.90;;;;;;5054573;28;20044;-71
2022/10/27 07:26:54;;;;;;;20.13;7.30;;;13.80;99.90;;;;;;5072791;28;20110;-70
2022/10/27 07:29:20;;;;;;;14.13;7.57;;;13.80;99.90;;;;;;5071421;28;20097;-71
2022/10/27 07:31:46;;;;;;;18.10;7.55;;;13.80;99.90;;;;;;5070809;28;20063;-71
2022/10/27 07:34:12;;;;;;;19.67;7.33;;;13.90;99.90;;;;;;5072627;28;20453;-72
2022/10/27 07:36:38;;;;;;;19.17;6.45;;;14.00;99.90;;;;;;5072527;28;20325;-71
2022/10/27 07:39:04;;;;;;;15.98;6.40;;;14.10;99.90;;;;;;5054437;28;20049;-71
2022/10/27 07:41:30;;;;;;;15.73;6.32;;;14.10;99.90;;;;;;5054546;28;20473;-71
2022/10/27 07:43:56;;;;;;;15.82;6.35;;;14.10;99.90;;;;;;5071945;28;20128;-71
2022/10/27 07:46:21;;;;;;;16.50;6.32;;;14.20;99.90;;;;;;5071199;28;20118;-71
2022/10/27 07:48:47;;;;;;;15.90;6.20;;;14.20;99.90;;;;;;5071488;28;20048;-72
2022/10/27 07:51:13;;;;;;;14.68;5.75;;;14.30;99.90;;;;;;5071145;28;20564;-71
2022/10/27 07:53:39;;;;;;;14.10;5.82;;;14.40;99.90;;;;;;5054899;28;20442;-70
2022/10/27 07:56:05;;;;;;;15.25;5.43;;;14.40;99.90;;;;;;5071224;28;20052;-71
2022/10/27 07:58:30;;;;;;;14.43;5.95;;;14.40;99.90;;;;;;5071982;28;20044;-72
2022/10/27 08:00:58;;;;;;;13.25;6.13;;;14.50;99.90;;;;;;5071071;28;20055;-69
2022/10/27 08:03:25;;;;;;;11.40;6.13;;;14.50;99.90;;;;;;5071211;28;20040;-71
2022/10/27 08:05:51;;;;;;;16.05;6.25;;;14.60;99.90;;;;;;5070938;28;20400;-71
2022/10/27 08:08:17;;;;;;;12.45;5.93;;;14.60;99.90;;;;;;5070993;28;20051;-71
2022/10/27 08:10:44;;;;;;;14.65;5.50;;;14.60;99.90;;;;;;5070888;28;20048;-71
2022/10/27 08:13:11;;;;;;;14.05;5.95;;;14.70;99.90;;;;;;5071244;28;20051;-71
2022/10/27 08:15:39;;;;;;;12.48;5.85;;;14.70;99.90;;;;;;5072192;28;20052;-75
2022/10/27 08:18:05;;;;;;;12.63;5.55;;;14.80;99.90;;;;;;5071220;28;20052;-71
2022/10/27 08:20:33;;;;;;;13.27;5.88;;;14.80;99.90;;;;;;5072168;28;20542;-71
2022/10/27 08:23:04;;;;;;;19.17;5.75;;;14.80;99.90;;;;;;5071018;28;20131;-71
2022/10/27 08:25:31;;;;;;;11.90;5.20;;;14.80;99.90;;;;;;5055083;28;20140;-70
2022/10/27 08:27:57;;;;;;;12.55;5.68;;;14.80;99.90;;;;;;5071537;28;20036;-72
2022/10/27 08:30:26;;;;;;;14.25;5.30;;;14.80;99.90;;;;;;5073817;28;20091;-71
2022/10/27 08:32:56;;;;;;;14.05;5.57;;;14.80;99.90;;;;;;5075502;28;20055;-70
2022/10/27 08:35:22;;;;;;;14.70;5.97;;;14.70;99.90;;;;;;5058640;28;20131;-71
2022/10/27 08:37:48;;;;;;;13.07;5.60;;;14.70;99.90;;;;;;5075457;28;20040;-71
2022/10/27 08:40:14;;;;;;;12.27;6.00;;;14.70;99.90;;;;;;5074790;28;20121;-71
2022/10/27 08:42:58;;;;;;;14.40;5.22;;;14.70;99.90;;;;;;5074096;28;20075;-73
2022/10/27 08:45:36;;;;;;;13.95;5.65;;;14.70;99.90;;;;;;5074497;28;20492;-71
2022/10/27 08:48:02;;;;;;;10.98;5.75;;;14.80;99.90;;;;;;5057081;28;20055;-70
2022/10/27 08:50:37;;;;;;;14.73;5.88;;;14.80;99.90;;;;;;5074157;28;20135;-71
2022/10/27 08:53:06;;;;;;;15.77;5.28;;;14.90;99.90;;;;;;5057716;28;20121;-71
2022/10/27 08:55:45;;;;;;;14.23;5.07;;;15.00;99.90;;;;;;5075175;28;20045;-71
2022/10/27 08:58:18;;;;;;;11.23;5.07;;;15.10;99.90;;;;;;5073911;28;20052;-72
2022/10/27 09:01:16;;;;;;;12.77;5.22;;;15.40;99.90;;;;;;5058106;28;20059;-71
2022/10/27 09:03:50;;;;;;;12.10;4.75;;;15.40;99.90;;;;;;5048101;28;20060;-71
2022/10/27 09:06:26;;;;;;;15.48;5.00;;;15.40;99.90;;;;;;5057286;28;20048;-72
2022/10/27 09:09:19;;;;;;;9.40;4.60;;;15.50;99.90;;;;;;5074940;28;20178;-71
2022/10/27 09:12:14;;;;;;;14.38;4.68;;;15.70;99.90;;;;;;5074923;28;20055;-71
2022/10/27 09:14:49;;;;;;;10.95;5.03;;;15.80;99.90;;;;;;5044791;28;20060;-71
2022/10/27 09:17:26;;;;;;;13.60;4.78;;;16.00;99.90;;;;;;5056650;28;20101;-72
2022/10/27 09:20:30;;;;;;;9.27;4.00;;;16.00;99.90;;;;;;5073693;28;20088;-71
2022/10/27 09:23:00;;;;;;;9.52;4.00;;;16.10;99.90;;;;;;5074767;28;20055;-72
2022/10/27 09:25:26;;;;;;;11.07;3.88;;;16.20;99.90;;;;;;5074725;28;20048;-72
2022/10/27 09:27:55;;;;;;;9.93;3.97;;;16.20;99.90;;;;;;5074729;28;20040;-72
2022/10/27 09:30:21;;;;;;;8.77;4.00;;;;;;;;;;5075419;28;20435;-71
2022/10/27 09:32:52;;;;;;;10.68;3.95;;;16.70;99.90;;;;;;5075196;28;20052;-72
2022/10/27 09:35:29;;;;;;;10.32;3.65;;;16.50;99.90;;;;;;5074734;28;20124;-77
2022/10/27 09:37:57;;;;;;;9.68;3.67;;;16.70;99.90;;;;;;5074062;28;20041;-72
2022/10/27 09:40:24;;;;;;;6.68;3.17;;;16.70;99.90;;;;;;5058430;28;20107;-72
2022/10/27 09:42:52;;;;;;;9.27;3.15;;;17.00;99.90;;;;;;5075928;28;20048;-71
2022/10/27 09:45:21;;;;;;;8.82;3.00;;;16.90;99.90;;;;;;5058455;28;20052;-71
2022/10/27 09:47:51;;;;;;;10.05;2.85;;;17.00;99.90;;;;;;5075321;28;20047;-71
2022/10/27 09:50:22;;;;;;;8.63;2.55;;;17.20;99.90;;;;;;5075278;28;20040;-71
2022/10/27 09:52:48;;;;;;;8.43;2.90;;;17.20;99.90;;;;;;5075036;28;20358;-71
2022/10/27 09:55:15;;;;;;;11.05;2.80;;;17.30;99.90;;;;;;5075609;28;20074;-70
2022/10/27 09:57:42;;;;;;;7.22;2.45;;;17.40;99.90;;;;;;5057044;28;20123;-71
2022/10/27 10:00:23;;;;;;;7.30;2.25;;;17.50;99.90;;;;;;5057101;28;20059;-72
2022/10/27 10:03:02;;;;;;;6.90;2.15;;;17.60;99.90;;;;;;5073973;28;20245;-71
2022/10/27 10:05:31;;;;;;;7.22;2.10;;;17.60;99.90;;;;;;5073922;28;20480;-71
2022/10/27 10:08:11;;;;;;;7.30;2.42;;;17.70;99.90;;;;;;5072194;28;20064;-72
2022/10/27 10:10:38;;;;;;;6.85;2.17;;;17.80;99.90;;;;;;5073332;28;20048;-73
2022/10/27 10:13:05;;;;;;;5.32;2.05;;;17.80;99.90;;;;;;5072157;28;20056;-71
2022/10/27 10:16:11;;;;;;;5.70;1.90;;;17.90;99.90;;;;;;5072357;28;20071;-71
2022/10/27 10:18:43;;;;;;;7.03;1.77;;;;;;;;;;5052724;28;20056;-71
2022/10/27 10:21:13;;;;;;;6.75;1.52;;;18.80;99.90;;;;;;5056645;28;20469;-72
2022/10/27 10:23:50;;;;;;;6.82;1.50;;;18.40;99.90;;;;;;5072527;28;20132;-71
2022/10/27 10:26:25;;;;;;;6.20;1.50;;;18.00;99.90;;;;;;5072900;28;20052;-71
2022/10/27 10:28:54;;;;;;;3.40;1.20;;;18.40;99.90;;;;;;5072187;28;20079;-71
2022/10/27 10:31:27;;;;;;;8.85;1.27;;;18.40;99.90;;;;;;5054905;28;20056;-73
2022/10/27 10:34:01;;;;;;;4.90;1.30;;;18.50;99.90;;;;;;5056282;28;20127;-72
2022/10/27 10:36:33;;;;;;;6.45;1.45;;;18.50;99.90;;;;;;5072043;28;20048;-74
2022/10/27 10:39:00;;;;;;;5.13;1.15;;;18.50;99.90;;;;;;5073436;28;20503;-72
2022/10/27 10:41:29;;;;;;;3.38;0.95;;;18.50;99.90;;;;;;5073792;28;20048;-80
2022/10/27 10:44:08;;;;;;;6.78;1.00;;;18.60;99.90;;;;;;5055418;28;20048;-73
2022/10/27 10:46:38;;;;;;;7.15;1.08;;;18.60;99.90;;;;;;5072732;28;20079;-71
2022/10/27 10:49:11;;;;;;;5.68;0.95;;;18.70;99.90;;;;;;5072004;28;20109;-73
2022/10/27 10:51:38;;;;;;;6.28;0.90;;;18.70;99.90;;;;;;5054319;28;20047;-72
2022/10/27 10:54:07;;;;;;;8.15;0.85;;;18.70;99.90;;;;;;5072047;28;20397;-71
2022/10/27 10:56:36;;;;;;;7.35;0.90;;;18.70;99.90;;;;;;5072826;28;20044;-71
2022/10/27 10:59:13;;;;;;;5.97;0.70;;;18.70;99.90;;;;;;5072985;28;20048;-73
2022/10/27 11:02:17;;;;;;;6.20;0.82;;;18.70;99.90;;;;;;5038414;28;20044;-72
2022/10/27 11:04:46;;;;;;;5.82;0.70;;;18.70;99.90;;;;;;5071855;28;20097;-73
2022/10/27 11:07:25;;;;;;;3.10;0.70;;;18.80;99.90;;;;;;5072387;28;20059;-73
2022/10/27 11:10:13;;;;;;;4.13;0.73;;;18.80;99.90;;;;;;5071758;28;20044;-73
2022/10/27 11:12:52;;;;;;;5.40;0.80;;;19.40;99.90;;;;;;5072455;28;20059;-73
2022/10/27 11:15:28;;;;;;;5.82;0.93;;;18.90;99.90;;;;;;5073289;28;20090;-72
2022/10/27 11:17:58;;;;;;;5.15;0.98;;;18.90;99.90;;;;;;5071374;28;20036;-72
2022/10/27 11:20:31;;;;;;;5.53;1.00;;;19.10;99.90;;;;;;5073373;28;20044;-73
2022/10/27 11:22:58;;;;;;;5.47;0.70;;;18.90;99.90;;;;;;5055076;28;20051;-73
2022/10/27 11:25:33;;;;;;;4.57;0.77;;;18.90;99.90;;;;;;5071881;28;20053;-72
2022/10/27 11:28:10;;;;;;;3.75;0.70;;;19.00;99.90;;;;;;5072160;28;20044;-72
2022/10/27 11:30:42;;;;;;;4.10;1.00;;;19.10;99.90;;;;;;5071171;28;20096;-80
2022/10/27 11:33:26;;;;;;;5.43;0.80;;;19.30;99.90;;;;;;5072808;28;20094;-73
2022/10/27 11:35:52;;;;;;;4.75;0.70;;;19.20;99.90;;;;;;5071034;28;20037;-73
2022/10/27 11:38:32;;;;;;;6.07;0.80;;;19.20;99.90;;;;;;5073108;28;20040;-74
2022/10/27 11:41:27;;;;;;;5.13;0.63;;;19.30;99.90;;;;;;5071818;28;20049;-73
2022/10/27 11:44:14;;;;;;;3.97;0.80;;;19.20;99.90;;;;;;5072144;28;20052;-72
2022/10/27 11:47:00;;;;;;;5.28;0.80;;;19.20;99.90;;;;;;5072143;28;20145;-72
2022/10/27 11:49:35;;;;;;;6.80;1.00;;;19.20;99.90;;;;;;5072690;28;20044;-72
2022/10/27 11:52:20;;;;;;;4.68;0.77;;;19.20;99.90;;;;;;5072551;28;20048;-72
2022/10/27 11:54:46;;;;;;;5.38;0.82;;;19.20;99.90;;;;;;5071250;28;20403;-72
2022/10/27 11:57:32;;;;;;;4.95;0.80;;;19.30;99.90;;;;;;5072478;28;20101;-73
2022/10/27 12:00:24;;;;;;;4.18;0.68;;;19.20;99.90;;;;;;5055469;28;20094;-72
2022/10/27 12:02:52;;;;;;;4.25;0.70;;;19.30;99.90;;;;;;5072971;28;20468;-72
2022/10/27 12:05:28;;;;;;;7.03;0.80;;;19.20;99.90;;;;;;5075391;28;20056;-71
2022/10/27 12:08:32;;;;;;;3.90;0.80;;;19.20;99.90;;;;;;5075620;28;20131;-72
2022/10/27 12:11:25;;;;;;;3.92;0.77;;;19.20;99.90;;;;;;5074915;28;20088;-72
2022/10/27 12:13:51;;;;;;;4.70;0.68;;;19.20;99.90;;;;;;5075452;28;20056;-73
2022/10/27 12:16:45;;;;;;;4.57;0.70;;;19.20;99.90;;;;;;5074847;28;20049;-73
2022/10/27 12:19:23;;;;;;;4.53;0.70;;;19.20;99.90;;;;;;5074850;28;20040;-74
2022/10/27 12:22:23;;;;;;;5.55;0.93;;;19.20;99.90;;;;;;5076582;28;20044;-74
2022/10/27 12:25:20;;;;;;;9.07;0.60;;;19.30;99.90;;;;;;5074688;28;20044;-74
2022/10/27 12:27:47;;;;;;;;;;;19.40;99.90;;;;;;5059092;28;20048;-73
2022/10/27 12:30:20;;;;;;;5.35;1.02;;;19.40;99.90;;;;;;5057818;28;19946;-72
2022/10/27 12:33:21;;;;;;;7.30;0.90;;;19.40;99.90;;;;;;5076448;28;20072;-74
2022/10/27 12:36:03;;;;;;;4.53;0.75;;;19.50;99.90;;;;;;5075460;28;20123;-73
2022/10/27 12:38:37;;;;;;;5.70;0.70;;;19.50;99.90;;;;;;5074990;28;20132;-73
2022/10/27 12:41:10;;;;;;;6.43;0.70;;;19.60;99.90;;;;;;5075936;28;20076;-74
2022/10/27 12:43:48;;;;;;;3.95;0.60;;;19.50;99.90;;;;;;5074831;28;20052;-72
2022/10/27 12:46:37;;;;;;;2.08;0.40;;;19.50;99.90;;;;;;5075479;28;20052;-74
2022/10/27 12:49:33;;;;;;;7.15;0.60;;;19.50;99.90;;;;;;5075033;28;20129;-74
2022/10/27 12:52:19;;;;;;;8.05;0.60;;;19.60;99.90;;;;;;5049512;28;20100;-73
2022/10/27 12:55:04;;;;;;;4.30;0.55;;;19.60;99.90;;;;;;5075419;28;20396;-72
2022/10/27 12:58:01;;;;;;;5.57;0.40;;;19.60;99.90;;;;;;5074636;28;20048;-74
2022/10/27 13:00:35;;;;;;;4.78;0.68;;;19.70;99.90;;;;;;5075777;28;20153;-73
2022/10/27 13:03:23;;;;;;;6.45;0.70;;;19.80;99.90;;;;;;5075890;28;20066;-74